Time;durP1;ratioP1;P1;durP2;ratioP2;P2;SDS_P1;SDS_P2;PMS_P1;PMS_P2;Temp;Humidity;BMP_temperature;BMP_pressure;BME280_temperature;BME280_humidity;BME280_pressure;Samples;Min_cycle;Max_cycle;Signal;HPM_P1;HPM_P2
2021/05/10 00:00:03;;;;;;;;;;;15.80;99.90;;;;;;5028759;28;20358;-69
2021/05/10 00:02:29;;;;;;;;;;;15.70;99.90;;;;;;5028714;28;19909;-67
2021/05/10 00:04:54;;;;;;;;;;;15.70;99.90;;;;;;5011953;28;19920;-67
2021/05/10 00:07:20;;;;;;;;;;;15.60;99.90;;;;;;5027989;28;19913;-67
2021/05/10 00:09:45;;;;;;;;;;;15.50;99.90;;;;;;5028828;28;19917;-68
2021/05/10 00:12:12;;;;;;;;;;;15.60;99.90;;;;;;5029089;28;19945;-67
2021/05/10 00:14:43;;;;;;;;;;;15.50;99.90;;;;;;5029116;28;19917;-67
2021/05/10 00:17:09;;;;;;;;;;;15.40;99.90;;;;;;5028972;28;19909;-68
2021/05/10 00:19:35;;;;;;;;;;;15.30;99.90;;;;;;5028573;28;19985;-68
2021/05/10 00:22:01;;;;;;;;;;;15.30;99.90;;;;;;5028454;28;20369;-67
2021/05/10 00:24:27;;;;;;;;;;;15.30;99.90;;;;;;5029125;28;19909;-67
2021/05/10 00:26:52;;;;;;;;;;;15.30;99.90;;;;;;5028794;28;20015;-68
2021/05/10 00:29:18;;;;;;;;;;;15.40;99.90;;;;;;5028235;28;19919;-67
2021/05/10 00:31:47;;;;;;;;;;;15.30;99.90;;;;;;5028736;28;19913;-67
2021/05/10 00:34:13;;;;;;;;;;;15.30;99.90;;;;;;5029099;28;20421;-68
2021/05/10 00:36:39;;;;;;;;;;;15.30;99.90;;;;;;5028524;28;19913;-68
2021/05/10 00:39:05;;;;;;;;;;;15.30;99.90;;;;;;5027349;28;19913;-67
2021/05/10 00:41:30;;;;;;;;;;;15.20;99.90;;;;;;5029098;28;20382;-68
2021/05/10 00:43:56;;;;;;;;;;;15.30;99.90;;;;;;5028283;28;20286;-67
2021/05/10 00:46:21;;;;;;;;;;;15.20;99.90;;;;;;5028636;28;20396;-67
2021/05/10 00:48:47;;;;;;;;;;;15.20;99.90;;;;;;5028547;28;20433;-68
2021/05/10 00:51:12;;;;;;;;;;;15.20;99.90;;;;;;5027752;28;19920;-68
2021/05/10 00:53:38;;;;;;;;;;;15.20;99.90;;;;;;5028266;28;19999;-67
2021/05/10 00:56:04;;;;;;;;;;;15.20;99.90;;;;;;5028988;28;19909;-68
2021/05/10 00:58:29;;;;;;;;;;;15.30;99.90;;;;;;5027650;28;19913;-66
2021/05/10 01:00:55;;;;;;;;;;;15.30;99.90;;;;;;5026400;28;19913;-67
2021/05/10 01:03:21;;;;;;;;;;;;;;;;;;5008316;28;19941;-67
2021/05/10 01:05:46;;;;;;;;;;;15.30;99.90;;;;;;4990366;28;20015;-67
2021/05/10 01:08:12;;;;;;;;;;;15.00;99.90;;;;;;5008412;28;20320;-68
2021/05/10 01:10:37;;;;;;;;;;;14.90;99.90;;;;;;5021487;28;19917;-67
2021/05/10 01:13:03;;;;;;;;;;;14.80;99.90;;;;;;5027709;28;19909;-68
2021/05/10 01:15:30;;;;;;;;;;;14.80;99.90;;;;;;5028746;28;20285;-68
2021/05/10 01:17:55;;;;;;;;;;;14.80;99.90;;;;;;5028456;28;19920;-67
2021/05/10 01:20:22;;;;;;;;;;;14.80;99.90;;;;;;5027725;28;19909;-67
2021/05/10 01:22:49;;;;;;;;;;;14.70;99.90;;;;;;5028260;28;20274;-68
2021/05/10 01:25:16;;;;;;;;;;;14.70;99.90;;;;;;5029689;28;19964;-68
2021/05/10 01:27:42;;;;;;;;;;;14.70;99.90;;;;;;5026938;28;19909;-67
2021/05/10 01:30:09;;;;;;;;;;;14.60;99.90;;;;;;5028737;28;19925;-67
2021/05/10 01:32:34;;;;;;;;;;;14.60;99.90;;;;;;5027649;28;20003;-68
2021/05/10 01:35:00;;;;;;;;;;;14.60;99.90;;;;;;5029213;28;20440;-67
2021/05/10 01:37:26;;;;;;;;;;;14.60;99.90;;;;;;5027813;28;20285;-67
2021/05/10 01:39:51;;;;;;;;;;;14.60;99.90;;;;;;5027926;28;20024;-67
2021/05/10 01:42:17;;;;;;;;;;;14.70;99.90;;;;;;5028152;28;19913;-67
2021/05/10 01:44:42;;;;;;;;;;;14.70;99.90;;;;;;5027828;28;19991;-67
2021/05/10 01:47:08;;;;;;;;;;;14.70;99.90;;;;;;5009260;28;19936;-67
2021/05/10 01:49:34;;;;;;;;;;;14.70;99.90;;;;;;5027468;28;19967;-67
2021/05/10 01:52:00;;;;;;;;;;;14.60;99.90;;;;;;5031284;28;20003;-67
2021/05/10 01:54:26;;;;;;;;;;;14.70;99.90;;;;;;5031367;28;19955;-67
2021/05/10 01:56:51;;;;;;;;;;;14.70;99.90;;;;;;5031156;28;20035;-67
2021/05/10 01:59:17;;;;;;;;;;;14.70;99.90;;;;;;5030715;28;19913;-67
2021/05/10 02:01:42;;;;;;;;;;;14.60;99.90;;;;;;5031171;28;20021;-68
2021/05/10 02:04:08;;;;;;;;;;;14.50;99.90;;;;;;5031565;28;20649;-67
2021/05/10 02:06:33;;;;;;;;;;;14.40;99.90;;;;;;5030732;28;19971;-66
2021/05/10 02:08:59;;;;;;;;;;;14.40;99.90;;;;;;5030196;28;19970;-67
2021/05/10 02:11:24;;;;;;;;;;;14.40;99.90;;;;;;5030874;28;19909;-67
2021/05/10 02:13:50;;;;;;;;;;;14.40;99.90;;;;;;5030671;28;19966;-67
2021/05/10 02:16:15;;;;;;;;;;;14.30;99.90;;;;;;5030824;28;20056;-68
2021/05/10 02:18:41;;;;;;;;;;;14.30;99.90;;;;;;5030787;28;19916;-67
2021/05/10 02:21:06;;;;;;;;;;;14.30;99.90;;;;;;5029820;28;19932;-67
2021/05/10 02:23:33;;;;;;;;;;;14.20;99.90;;;;;;5030696;28;19962;-68
2021/05/10 02:26:03;;;;;;;;;;;14.30;99.90;;;;;;5031268;28;19975;-67
2021/05/10 02:28:30;;;;;;;;;;;14.20;99.90;;;;;;5030681;28;19913;-68
2021/05/10 02:30:56;;;;;;;;;;;14.20;99.90;;;;;;5029293;28;20282;-67
2021/05/10 02:33:23;;;;;;;;;;;14.20;99.90;;;;;;5030740;28;19909;-67
2021/05/10 02:35:49;;;;;;;;;;;14.20;99.90;;;;;;5030426;28;19913;-67
2021/05/10 02:38:15;;;;;;;;;;;14.20;99.90;;;;;;5030554;28;19909;-68
2021/05/10 02:40:41;;;;;;;;;;;14.20;99.90;;;;;;5029534;28;19919;-66
2021/05/10 02:43:07;;;;;;;;;;;14.20;99.90;;;;;;5030142;28;19913;-67
2021/05/10 02:45:32;;;;;;;;;;;14.20;1.00;;;;;;5030315;28;19921;-67
2021/05/10 02:47:58;;;;;;;;;;;14.20;1.00;;;;;;5030274;28;19913;-67
2021/05/10 02:50:24;;;;;;;;;;;14.20;1.00;;;;;;5029862;28;19913;-67
2021/05/10 02:52:50;;;;;;;;;;;14.30;1.00;;;;;;5029337;28;20363;-67
2021/05/10 02:55:16;;;;;;;;;;;14.30;1.00;;;;;;5030791;28;19935;-67
2021/05/10 02:57:42;;;;;;;;;;;14.20;1.00;;;;;;5029506;28;19909;-67
2021/05/10 03:00:08;;;;;;;;;;;14.10;1.00;;;;;;5029869;28;20243;-67
2021/05/10 03:02:34;;;;;;;;;;;14.10;1.00;;;;;;5028582;28;19914;-68
2021/05/10 03:04:59;;;;;;;;;;;14.10;1.00;;;;;;5030634;28;19965;-67
2021/05/10 03:07:25;;;;;;;;;;;14.10;1.00;;;;;;5029386;28;19959;-68
2021/05/10 03:09:50;;;;;;;;;;;14.10;1.00;;;;;;5029553;28;19917;-67
2021/05/10 03:12:16;;;;;;;;;;;14.10;1.00;;;;;;5029908;28;20054;-67
2021/05/10 03:14:41;;;;;;;;;;;14.00;1.00;;;;;;5029650;28;20398;-67
2021/05/10 03:17:07;;;;;;;;;;;13.90;1.00;;;;;;5029645;28;19917;-68
2021/05/10 03:19:32;;;;;;;;;;;13.90;1.00;;;;;;5029365;28;20270;-67
2021/05/10 03:21:58;;;;;;;;;;;13.80;1.00;;;;;;5029721;28;20246;-67
2021/05/10 03:24:23;;;;;;;;;;;13.80;14.10;;;;;;5030111;28;20501;-67
2021/05/10 03:26:49;;;;;;;;;;;13.80;77.70;;;;;;5029902;28;20273;-67
2021/05/10 03:29:14;;;;;;;;;;;13.80;99.90;;;;;;5028884;28;19913;-67
2021/05/10 03:31:40;;;;;;;;;;;13.80;99.00;;;;;;5029686;28;19909;-68
2021/05/10 03:34:05;;;;;;;;;;;13.70;41.90;;;;;;5030018;28;19932;-66
2021/05/10 03:36:31;;;;;;;;;;;13.80;41.10;;;;;;5029757;28;19996;-67
2021/05/10 03:38:57;;;;;;;;;;;13.80;95.00;;;;;;5028882;28;20497;-66
2021/05/10 03:41:22;;;;;;;;;;;13.70;99.90;;;;;;5029863;28;20389;-67
2021/05/10 03:43:48;;;;;;;;;;;13.70;99.90;;;;;;5029348;28;19932;-67
2021/05/10 03:46:14;;;;;;;;;;;13.60;99.90;;;;;;5029284;28;20007;-67
2021/05/10 03:48:39;;;;;;;;;;;13.60;99.90;;;;;;5029393;28;20001;-67
2021/05/10 03:51:05;;;;;;;;;;;13.50;99.90;;;;;;5028179;28;20326;-67
2021/05/10 03:53:30;;;;;;;;;;;13.60;99.90;;;;;;5029059;28;20003;-67
2021/05/10 03:55:56;;;;;;;;;;;13.50;99.90;;;;;;5029131;28;19996;-67
2021/05/10 03:58:21;;;;;;;;;;;13.50;99.90;;;;;;5028883;28;19948;-67
2021/05/10 04:00:47;;;;;;;;;;;13.60;99.90;;;;;;5028277;28;19921;-67
2021/05/10 04:03:15;;;;;;;;;;;13.70;99.90;;;;;;5029224;28;20369;-67
2021/05/10 04:13:38;;;;;;;;;;;14.00;4.70;;;;;;5028437;28;20031;-67
2021/05/10 04:16:07;;;;;;;;;;;14.10;1.00;;;;;;5010929;28;19913;-68
2021/05/10 04:18:33;;;;;;;;;;;14.20;1.00;;;;;;5028961;28;19963;-68
2021/05/10 04:20:59;;;;;;;;;;;14.40;1.00;;;;;;5010021;28;19913;-68
2021/05/10 04:23:25;;;;;;;;;;;14.50;1.00;;;;;;5028363;28;19916;-67
2021/05/10 04:25:51;;;;;;;;;;;14.50;1.00;;;;;;5028724;28;20247;-67
2021/05/10 04:28:17;;;;;;;;;;;14.50;1.00;;;;;;5028539;28;19915;-67
2021/05/10 04:30:43;;;;;;;;;;;14.50;1.00;;;;;;5027756;28;19913;-67
2021/05/10 04:33:08;;;;;;;;;;;14.60;1.00;;;;;;5024771;28;19963;-66
2021/05/10 04:35:34;;;;;;;;;;;14.70;1.00;;;;;;5027211;28;19909;-70
2021/05/10 04:38:01;;;;;;;;;;;14.80;1.00;;;;;;5027437;28;20106;-67
2021/05/10 04:40:27;;;;;;;;;;;14.80;1.00;;;;;;5027244;28;19968;-68
2021/05/10 04:42:52;;;;;;;;;;;14.90;1.00;;;;;;5025628;28;19913;-68
2021/05/10 04:45:18;;;;;;;;;;;15.00;1.00;;;;;;5028520;28;19955;-67
2021/05/10 04:47:46;;;;;;;;;;;15.00;1.00;;;;;;5027857;28;20374;-68
2021/05/10 04:50:12;;;;;;;;;;;15.10;1.00;;;;;;5028124;28;20531;-68
2021/05/10 04:52:38;;;;;;;;;;;15.20;1.00;;;;;;5027421;28;19959;-68
2021/05/10 04:55:05;;;;;;;;;;;15.40;99.90;;;;;;5028384;28;19954;-68
2021/05/10 04:57:30;;;;;;;;;;;15.50;99.90;;;;;;5027590;28;20008;-67
2021/05/10 04:59:56;;;;;;;;;;;15.60;99.90;;;;;;5028235;28;19996;-67
2021/05/10 05:02:21;;;;;;;;;;;15.60;99.90;;;;;;5028702;28;20337;-69
2021/05/10 05:04:47;;;;;;;;;;;15.60;99.90;;;;;;5029378;28;20344;-69
2021/05/10 05:07:12;;;;;;;;;;;15.50;99.90;;;;;;5027954;28;19917;-68
2021/05/10 05:09:38;;;;;;;;;;;15.40;99.90;;;;;;5028015;28;19963;-68
2021/05/10 05:12:04;;;;;;;;;;;15.50;99.90;;;;;;5028663;28;20382;-67
2021/05/10 05:14:29;;;;;;;;;;;15.70;99.90;;;;;;5028084;28;20386;-68
2021/05/10 05:16:55;;;;;;;;;;;15.80;99.90;;;;;;5026906;28;19944;-67
2021/05/10 05:19:20;;;;;;;;;;;16.00;99.90;;;;;;5026873;28;19921;-67
2021/05/10 05:21:45;;;;;;;;;;;16.20;99.90;;;;;;5027084;28;19917;-67
2021/05/10 05:24:11;;;;;;;;;;;16.30;99.90;;;;;;5027175;28;19924;-66
2021/05/10 05:26:36;;;;;;;;;;;16.40;99.90;;;;;;5031453;28;19917;-66
2021/05/10 05:29:02;;;;;;;;;;;16.40;99.90;;;;;;5031134;28;19986;-68
2021/05/10 05:31:29;;;;;;;;;;;16.50;99.90;;;;;;5031317;28;20000;-67
2021/05/10 05:33:54;;;;;;;;;;;16.70;99.90;;;;;;5031404;28;19923;-68
2021/05/10 05:36:20;;;;;;;;;;;16.90;99.90;;;;;;5031441;28;20464;-68
2021/05/10 05:38:45;;;;;;;;;;;17.00;99.90;;;;;;5031255;28;19933;-68
2021/05/10 05:41:12;;;;;;;;;;;17.10;99.90;;;;;;5012853;28;20007;-67
2021/05/10 05:43:38;;;;;;;;;;;17.30;99.90;;;;;;5030784;28;19921;-67
2021/05/10 05:46:11;;;;;;;;;;;17.70;99.90;;;;;;5031026;28;19924;-68
2021/05/10 05:48:36;;;;;;;;;;;18.10;99.90;;;;;;5031082;28;19921;-67
2021/05/10 05:51:02;;;;;;;;;;;18.30;99.90;;;;;;5029893;28;19979;-67
2021/05/10 05:53:28;;;;;;;;;;;18.40;99.90;;;;;;5030724;28;20004;-66
2021/05/10 05:55:53;;;;;;;;;;;18.50;99.90;;;;;;5031785;28;19959;-66
2021/05/10 05:58:19;;;;;;;;;;;18.80;99.90;;;;;;5031550;28;20660;-68
2021/05/10 06:00:44;;;;;;;;;;;19.00;99.90;;;;;;5030906;28;19967;-67
2021/05/10 06:03:10;;;;;;;;;;;19.90;99.90;;;;;;5031266;28;19967;-67
2021/05/10 06:05:35;;;;;;;;;;;20.70;99.90;;;;;;5032151;28;19913;-67
2021/05/10 06:08:01;;;;;;;;;;;22.00;99.90;;;;;;5030601;28;19917;-66
2021/05/10 06:10:28;;;;;;;;;;;23.00;99.90;;;;;;5030652;28;20303;-67
2021/05/10 06:12:54;;;;;;;;;;;23.70;99.90;;;;;;5030127;28;19920;-67
2021/05/10 06:15:21;;;;;;;;;;;23.70;99.90;;;;;;5028145;28;19917;-69
2021/05/10 06:17:46;;;;;;;;;;;23.60;99.90;;;;;;5030824;28;19950;-67
2021/05/10 06:20:12;;;;;;;;;;;23.60;99.90;;;;;;5030530;28;19917;-67
2021/05/10 06:22:38;;;;;;;;;;;23.30;99.90;;;;;;5030292;28;19983;-67
2021/05/10 06:25:08;;;;;;;;;;;22.70;99.90;;;;;;5031301;28;19909;-67
2021/05/10 06:27:33;;;;;;;;;;;22.20;99.90;;;;;;5030482;28;19952;-67
2021/05/10 06:29:59;;;;;;;;;;;21.60;99.90;;;;;;5029017;28;19944;-67
2021/05/10 06:32:25;;;;;;;;;;;21.10;99.90;;;;;;5029561;28;19971;-67
2021/05/10 06:34:50;;;;;;;;;;;20.80;99.90;;;;;;5030129;28;19916;-67
2021/05/10 06:37:20;;;;;;;;;;;20.40;99.90;;;;;;5028445;28;19913;-68
2021/05/10 06:39:46;;;;;;;;;;;20.20;99.90;;;;;;5029264;28;19921;-67
2021/05/10 06:42:11;;;;;;;;;;;20.20;99.90;;;;;;5030535;28;19916;-66
2021/05/10 06:44:37;;;;;;;;;;;20.20;99.90;;;;;;5030854;28;19917;-67
2021/05/10 06:47:02;;;;;;;;;;;20.60;99.90;;;;;;5030153;28;19913;-68
2021/05/10 06:49:28;;;;;;;;;;;21.00;99.90;;;;;;5029879;28;20004;-68
2021/05/10 06:51:53;;;;;;;;;;;22.30;99.90;;;;;;5030329;28;19971;-68
2021/05/10 06:54:19;;;;;;;;;;;24.20;99.90;;;;;;5030494;28;20318;-66
2021/05/10 06:56:44;;;;;;;;;;;26.60;99.90;;;;;;5031084;28;19989;-67
2021/05/10 06:59:10;;;;;;;;;;;28.70;99.90;;;;;;5029711;28;20048;-67
2021/05/10 07:01:35;;;;;;;;;;;30.70;99.90;;;;;;5030092;28;19958;-68
2021/05/10 07:04:01;;;;;;;;;;;32.10;99.90;;;;;;5030770;28;19913;-68
2021/05/10 07:06:26;;;;;;;;;;;33.00;99.90;;;;;;5030339;28;19917;-68
2021/05/10 07:11:19;;;;;;;;;;;34.80;99.90;;;;;;5048243;28;19932;-67
2021/05/10 07:13:45;;;;;;;;;;;36.00;99.90;;;;;;5049941;28;19909;-66
2021/05/10 07:16:10;;;;;;;;;;;36.20;99.90;;;;;;5050201;28;20365;-67
2021/05/10 07:18:36;;;;;;;;;;;35.90;99.90;;;;;;5031864;28;19909;-68
2021/05/10 07:21:01;;;;;;;;;;;35.00;98.90;;;;;;5048751;28;20004;-68
2021/05/10 07:23:27;;;;;;;;;;;34.20;79.00;;;;;;5049738;28;19948;-68
2021/05/10 07:25:53;;;;;;;;;;;32.80;59.40;;;;;;5034247;28;19936;-68
2021/05/10 07:28:19;;;;;;;;;;;31.90;54.50;;;;;;5029402;28;20242;-68
2021/05/10 07:30:45;;;;;;;;;;;31.40;48.40;;;;;;5028702;28;19960;-67
2021/05/10 07:33:11;;;;;;;;;;;31.10;41.90;;;;;;5028714;28;19984;-68
2021/05/10 07:35:36;;;;;;;;;;;31.10;39.50;;;;;;5029793;28;19992;-67
2021/05/10 07:38:02;;;;;;;;;;;31.70;37.10;;;;;;5028391;28;19921;-68
2021/05/10 07:40:29;;;;;;;;;;;31.90;35.10;;;;;;5029216;28;19924;-67
2021/05/10 07:42:55;;;;;;;;;;;32.60;34.70;;;;;;5028830;28;19924;-68
2021/05/10 07:45:21;;;;;;;;;;;32.80;32.00;;;;;;5030192;28;20020;-68
2021/05/10 07:47:53;;;;;;;;;;;32.60;28.70;;;;;;5028411;28;19944;-68
2021/05/10 07:50:19;;;;;;;;;;;32.30;26.90;;;;;;5028776;28;20397;-68
2021/05/10 07:52:44;;;;;;;;;;;33.50;27.80;;;;;;5028250;28;20050;-68
2021/05/10 07:55:10;;;;;;;;;;;35.30;28.70;;;;;;5029112;28;20552;-68
2021/05/10 07:57:35;;;;;;;;;;;37.10;28.40;;;;;;5028505;28;19920;-68
2021/05/10 08:00:04;;;;;;;;;;;38.20;27.70;;;;;;5028209;28;19945;-68
2021/05/10 08:02:31;;;;;;;;;;;39.50;63.90;;;;;;5028162;28;19910;-67
2021/05/10 08:04:57;;;;;;;;;;;40.90;99.90;;;;;;5029284;28;19916;-68
2021/05/10 08:07:22;;;;;;;;;;;42.10;99.90;;;;;;5027733;28;19974;-68
2021/05/10 08:09:48;;;;;;;;;;;41.60;99.90;;;;;;5028221;28;20024;-68
2021/05/10 08:12:14;;;;;;;;;;;40.50;99.90;;;;;;5028870;28;19918;-68
2021/05/10 08:14:39;;;;;;;;;;;40.70;99.90;;;;;;5029346;28;19956;-68
2021/05/10 08:17:05;;;;;;;;;;;41.60;99.90;;;;;;5028145;28;19969;-68
2021/05/10 08:19:30;;;;;;;;;;;42.70;99.90;;;;;;5028373;28;20004;-68
2021/05/10 08:21:59;;;;;;;;;;;43.50;99.90;;;;;;5028010;28;19920;-68
2021/05/10 08:24:25;;;;;;;;;;;44.20;99.90;;;;;;5028719;28;19909;-68
2021/05/10 08:26:50;;;;;;;;;;;44.90;99.90;;;;;;5028582;28;19913;-68
2021/05/10 08:29:16;;;;;;;;;;;44.60;1.00;;;;;;5027717;28;20605;-68
2021/05/10 08:31:44;;;;;;;;;;;42.90;1.00;;;;;;5028297;28;19917;-68
2021/05/10 08:34:10;;;;;;;;;;;40.90;1.00;;;;;;5028553;28;20007;-68
2021/05/10 08:36:35;;;;;;;;;;;41.30;1.00;;;;;;5028005;28;19992;-67
2021/05/10 08:39:01;;;;;;;;;;;41.80;1.00;;;;;;5027951;28;19909;-68
2021/05/10 08:41:26;;;;;;;;;;;42.50;1.00;;;;;;5028600;28;19915;-68
2021/05/10 08:43:52;;;;;;;;;;;43.10;1.00;;;;;;5010043;28;19940;-68
2021/05/10 08:46:21;;;;;;;;;;;44.30;1.00;;;;;;5028182;28;19924;-68
2021/05/10 08:48:47;;;;;;;;;;;45.30;7.70;;;;;;5028500;28;19909;-68
2021/05/10 08:51:12;;;;;;;;;;;45.70;14.10;;;;;;5026783;28;19960;-67
2021/05/10 08:53:39;;;;;;;;;;;46.50;43.30;;;;;;5028113;28;19920;-66
2021/05/10 08:56:05;;;;;;;;;;;46.50;99.90;;;;;;5028975;28;20491;-68
2021/05/10 08:58:41;;;;;;;;;;;45.80;24.90;;;;;;5027613;28;20004;-68
2021/05/10 09:01:07;;;;;;;;;;;44.70;8.20;;;;;;5029319;28;19967;-68
2021/05/10 09:03:44;;;;;;;;;;;45.10;5.10;;;;;;5031934;28;19979;-68
2021/05/10 09:06:14;;;;;;;;;;;44.80;3.40;;;;;;5031845;28;20447;-68
2021/05/10 09:08:41;;;;;;;;;;;42.60;1.00;;;;;;5031421;28;20239;-68
2021/05/10 09:11:07;;;;;;;;;;;42.20;3.10;;;;;;5030719;28;19924;-67
2021/05/10 09:13:36;;;;;;;;;;;42.20;20.90;;;;;;5030943;28;19952;-68
2021/05/10 09:16:03;;;;;;;;;;;43.10;61.80;;;;;;5031205;28;19909;-68
2021/05/10 09:18:29;;;;;;;;;;;44.30;99.90;;;;;;5031590;28;19924;-68
2021/05/10 09:20:54;;;;;;;;;;;45.10;99.90;;;;;;5030355;28;19917;-67
2021/05/10 09:23:20;;;;;;;;;;;44.80;99.90;;;;;;5030336;28;19932;-68
2021/05/10 09:25:46;;;;;;;;;;;45.30;99.90;;;;;;5031633;28;20040;-68
2021/05/10 09:28:18;;;;;;;;;;;45.60;99.90;;;;;;5031264;28;19988;-67
2021/05/10 09:30:45;;;;;;;;;;;44.20;99.90;;;;;;5030283;28;20369;-68
2021/05/10 09:33:21;;;;;;;;;;;44.50;99.90;;;;;;5031152;28;19948;-68
2021/05/10 09:35:47;;;;;;;;;;;44.10;99.90;;;;;;5029165;28;20458;-67
2021/05/10 09:38:12;;;;;;;;;;;44.30;99.90;;;;;;5030314;28;19913;-67
2021/05/10 09:40:45;;;;;;;;;;;44.50;99.90;;;;;;5030542;28;19920;-66
2021/05/10 09:43:12;;;;;;;;;;;43.30;99.90;;;;;;5028869;28;20407;-68
2021/05/10 09:45:47;;;;;;;;;;;42.40;99.90;;;;;;5030820;28;20550;-68
2021/05/10 09:48:24;;;;;;;;;;;42.00;99.90;;;;;;5029231;28;20396;-67
2021/05/10 09:51:03;;;;;;;;;;;43.00;99.90;;;;;;5011194;28;19960;-67
2021/05/10 09:53:29;;;;;;;;;;;;;;;;;;5011031;28;19913;-68
2021/05/10 09:55:56;;;;;;;;;;;;;;;;;;5012311;28;19918;-69
2021/05/10 09:58:22;;;;;;;;;;;;;;;;;;5011687;28;19910;-68
2021/05/10 10:00:55;;;;;;;;;;;44.60;1.00;;;;;;4993461;28;20442;-68
2021/05/10 10:03:26;;;;;;;;;;;44.70;99.90;;;;;;5011809;28;19914;-67
2021/05/10 10:05:53;;;;;;;;;;;44.40;99.90;;;;;;5036061;28;19935;-68
2021/05/10 10:08:19;;;;;;;;;;;44.60;99.90;;;;;;5051405;28;19924;-69
2021/05/10 10:10:44;;;;;;;;;;;42.20;99.90;;;;;;5047512;28;20381;-69
2021/05/10 10:13:10;;;;;;;;;;;42.00;99.90;;;;;;5029913;28;19921;-70
2021/05/10 10:15:36;;;;;;;;;;;42.20;99.90;;;;;;5031297;28;19913;-68
2021/05/10 10:18:04;;;;;;;;;;;41.80;99.90;;;;;;5030370;28;19909;-67
2021/05/10 10:20:30;;;;;;;;;;;42.10;99.90;;;;;;5031822;28;20017;-68
2021/05/10 10:22:56;;;;;;;;;;;41.90;99.90;;;;;;5030308;28;20433;-68
2021/05/10 10:25:21;;;;;;;;;;;42.80;99.90;;;;;;5031579;28;19909;-66
2021/05/10 10:27:47;;;;;;;;;;;43.70;99.90;;;;;;5031093;28;20047;-67
2021/05/10 10:30:13;;;;;;;;;;;43.80;99.90;;;;;;5031041;28;19913;-67
2021/05/10 10:32:41;;;;;;;;;;;43.00;99.90;;;;;;5031238;28;20449;-69
2021/05/10 10:35:09;;;;;;;;;;;42.30;99.90;;;;;;5032114;28;20524;-67
2021/05/10 10:37:35;;;;;;;;;;;42.30;99.90;;;;;;5031142;28;20110;-68
2021/05/10 10:40:03;;;;;;;;;;;42.30;99.90;;;;;;5030708;28;20007;-68
2021/05/10 10:42:32;;;;;;;;;;;42.70;99.90;;;;;;5024875;28;19932;-68
2021/05/10 10:44:59;;;;;;;;;;;43.00;99.90;;;;;;5026926;28;20392;-68
2021/05/10 10:47:44;;;;;;;;;;;42.80;99.90;;;;;;5030233;28;19917;-68
2021/05/10 10:50:10;;;;;;;;;;;42.10;99.90;;;;;;5026367;28;20000;-69
2021/05/10 10:52:47;;;;;;;;;;;41.40;99.90;;;;;;5029437;28;20322;-69
2021/05/10 10:55:15;;;;;;;;;;;40.90;99.90;;;;;;5030987;28;19909;-68
2021/05/10 10:57:41;;;;;;;;;;;40.70;99.90;;;;;;5029965;28;20013;-68
2021/05/10 11:00:08;;;;;;;;;;;40.70;99.90;;;;;;5029752;28;19988;-69
2021/05/10 11:02:45;;;;;;;;;;;40.70;99.90;;;;;;5030016;28;19931;-69
2021/05/10 11:05:16;;;;;;;;;;;40.80;99.90;;;;;;5032276;28;20314;-68
2021/05/10 11:07:55;;;;;;;;;;;40.50;99.90;;;;;;5029297;28;19959;-68
2021/05/10 11:10:39;;;;;;;;;;;39.90;99.90;;;;;;5030178;28;19918;-68
2021/05/10 11:13:07;;;;;;;;;;;39.40;99.90;;;;;;5029546;28;20004;-68
2021/05/10 11:15:32;;;;;;;;;;;39.30;99.90;;;;;;5045359;28;20500;-68
2021/05/10 11:17:58;;;;;;;;;;;38.90;99.90;;;;;;5029452;28;19916;-68
2021/05/10 11:20:40;;;;;;;;;;;38.60;99.90;;;;;;5029281;28;20059;-68
2021/05/10 11:23:24;;;;;;;;;;;38.10;99.90;;;;;;5022201;28;19992;-69
2021/05/10 11:26:09;;;;;;;;;;;37.40;99.90;;;;;;5030725;28;19945;-69
2021/05/10 11:28:35;;;;;;;;;;;36.90;99.90;;;;;;5027493;28;20373;-69
2021/05/10 11:31:01;;;;;;;;;;;36.40;99.90;;;;;;5029214;28;19917;-69
2021/05/10 11:33:45;;;;;;;;;;;36.00;99.90;;;;;;5029739;28;19954;-69
2021/05/10 11:36:19;;;;;;;;;;;35.80;99.90;;;;;;5023095;28;19962;-69
2021/05/10 11:38:55;;;;;;;;;;;35.40;99.90;;;;;;5029568;28;20452;-69
2021/05/10 11:41:37;;;;;;;;;;;35.00;99.90;;;;;;5029600;28;19921;-68
2021/05/10 11:44:04;;;;;;;;;;;34.60;99.90;;;;;;5029691;28;19917;-69
2021/05/10 11:46:40;;;;;;;;;;;34.10;99.90;;;;;;5029364;28;19952;-68
2021/05/10 11:49:07;;;;;;;;;;;33.70;99.90;;;;;;5029454;28;19955;-70
2021/05/10 11:51:39;;;;;;;;;;;33.40;99.90;;;;;;5029072;28;19913;-69
2021/05/10 11:54:06;;;;;;;;;;;33.30;99.90;;;;;;5029480;28;20004;-69
2021/05/10 11:56:36;;;;;;;;;;;33.20;99.90;;;;;;5029660;28;19914;-69
2021/05/10 12:01:31;;;;;;;;;;;32.50;99.90;;;;;;5028948;28;20032;-68
2021/05/10 12:03:56;;;;;;;;;;;32.40;99.90;;;;;;5029451;28;19910;-68
2021/05/10 12:06:29;;;;;;;;;;;32.50;99.90;;;;;;5029452;28;20235;-68
2021/05/10 12:08:54;;;;;;;;;;;32.50;99.90;;;;;;5028755;28;20484;-68
2021/05/10 12:11:21;;;;;;;;;;;32.40;99.90;;;;;;5029161;28;20004;-68
2021/05/10 12:13:46;;;;;;;;;;;32.10;99.90;;;;;;5031554;28;19949;-70
2021/05/10 12:16:11;;;;;;;;;;;31.90;99.90;;;;;;5045906;28;19967;-70
2021/05/10 12:18:40;;;;;;;;;;;31.60;99.90;;;;;;5028546;28;20354;-70
2021/05/10 12:21:15;;;;;;;;;;;31.30;99.90;;;;;;5028321;28;19920;-70
2021/05/10 12:23:40;;;;;;;;;;;31.20;99.90;;;;;;5028284;28;19916;-70
2021/05/10 12:26:10;;;;;;;;;;;30.50;99.90;;;;;;5028810;28;19951;-69
2021/05/10 12:28:35;;;;;;;;;;;30.40;99.90;;;;;;5028569;28;19979;-68
2021/05/10 12:31:01;;;;;;;;;;;29.90;99.90;;;;;;5028062;28;19917;-70
2021/05/10 12:33:27;;;;;;;;;;;29.40;99.90;;;;;;5029040;28;20003;-69
2021/05/10 12:36:02;;;;;;;;;;;29.10;99.90;;;;;;5028582;28;19917;-68
2021/05/10 12:38:30;;;;;;;;;;;29.00;99.90;;;;;;5027175;28;19963;-69
2021/05/10 12:40:57;;;;;;;;;;;28.90;99.90;;;;;;5026582;28;19992;-69
2021/05/10 12:43:28;;;;;;;;;;;29.10;99.90;;;;;;5028305;28;20008;-69
2021/05/10 12:45:56;;;;;;;;;;;29.20;99.90;;;;;;5028427;28;19917;-69
2021/05/10 12:48:23;;;;;;;;;;;29.30;99.90;;;;;;5029481;28;19932;-69
2021/05/10 12:50:49;;;;;;;;;;;29.40;99.90;;;;;;5027996;28;19919;-68
2021/05/10 12:53:14;;;;;;;;;;;29.40;99.90;;;;;;5028456;28;19996;-69
2021/05/10 12:55:40;;;;;;;;;;;28.90;99.90;;;;;;5028648;28;20514;-69
2021/05/10 12:58:22;;;;;;;;;;;28.60;99.90;;;;;;5028220;28;20289;-69
2021/05/10 13:00:48;;;;;;;;;;;28.50;99.90;;;;;;5010438;28;19909;-69
2021/05/10 13:03:40;;;;;;;;;;;28.20;99.90;;;;;;5028814;28;20006;-69
2021/05/10 13:06:05;;;;;;;;;;;28.20;99.90;;;;;;5026349;28;19909;-69
2021/05/10 13:08:38;;;;;;;;;;;27.90;99.90;;;;;;5027705;28;19916;-68
2021/05/10 13:11:04;;;;;;;;;;;27.80;99.90;;;;;;5047586;22;19937;-67
2021/05/10 13:13:39;;;;;;;;;;;27.70;99.90;;;;;;5043716;28;20003;-67
2021/05/10 13:16:18;;;;;;;;;;;27.50;99.90;;;;;;5048832;28;20333;-67
2021/05/10 13:19:11;;;;;;;;;;;27.30;99.90;;;;;;5042354;28;20340;-68
2021/05/10 13:32:12;;;;;;;;;;;26.60;99.90;;;;;;5028583;28;20008;-68
2021/05/10 13:34:56;;;;;;;;;;;26.70;99.90;;;;;;5029157;28;19924;-67
2021/05/10 13:37:25;;;;;;;;;;;26.60;99.90;;;;;;5027810;28;20010;-67
2021/05/10 13:39:51;;;;;;;;;;;26.60;99.90;;;;;;5027961;28;20289;-67
2021/05/10 13:42:25;;;;;;;;;;;26.40;99.90;;;;;;5028715;28;19916;-66
2021/05/10 13:44:52;;;;;;;;;;;26.40;99.90;;;;;;5038776;28;20606;-69
2021/05/10 13:47:20;;;;;;;;;;;26.40;99.90;;;;;;5051161;28;19928;-69
2021/05/10 13:49:46;;;;;;;;;;;26.70;99.90;;;;;;5051464;28;19955;-67
2021/05/10 13:52:12;;;;;;;;;;;26.80;99.90;;;;;;5051463;28;19948;-70
2021/05/10 13:54:37;;;;;;;;;;;26.60;99.90;;;;;;5051880;28;19912;-67
2021/05/10 13:57:03;;;;;;;;;;;26.60;99.90;;;;;;5051942;28;19954;-67
2021/05/10 13:59:30;;;;;;;;;;;26.50;99.90;;;;;;5051067;28;19932;-68
2021/05/10 14:01:56;;;;;;;;;;;26.50;99.90;;;;;;5051871;28;19920;-69
2021/05/10 14:04:21;;;;;;;;;;;26.30;99.90;;;;;;5052218;28;19924;-67
2021/05/10 14:06:47;;;;;;;;;;;26.20;99.90;;;;;;5047901;28;19952;-67
2021/05/10 14:09:13;;;;;;;;;;;26.10;99.90;;;;;;5040679;28;19919;-67
2021/05/10 14:11:39;;;;;;;;;;;25.70;99.90;;;;;;5044346;28;20341;-67
2021/05/10 14:14:05;;;;;;;;;;;25.60;99.90;;;;;;5041790;28;19921;-67
2021/05/10 14:16:31;;;;;;;;;;;25.30;99.90;;;;;;5047519;28;19919;-67
2021/05/10 14:24:06;;;;;;;;;;;25.30;99.90;;;;;;5049072;28;19982;-72
2021/05/10 14:26:32;;;;;;;;;;;25.40;99.90;;;;;;5044133;28;19909;-70
2021/05/10 14:28:57;;;;;;;;;;;25.60;99.90;;;;;;5050550;28;20445;-70
2021/05/10 14:31:23;;;;;;;;;;;25.80;99.90;;;;;;5050759;28;20019;-70
2021/05/10 14:33:48;;;;;;;;;;;25.90;99.90;;;;;;5050578;28;19997;-71
2021/05/10 14:36:14;;;;;;;;;;;25.70;99.90;;;;;;5050952;28;20638;-71
2021/05/10 14:38:39;;;;;;;;;;;25.60;99.90;;;;;;5050445;28;19908;-71
2021/05/10 14:41:05;;;;;;;;;;;25.30;99.90;;;;;;5049965;28;19920;-70
2021/05/10 14:43:32;;;;;;;;;;;25.30;99.90;;;;;;5050476;28;19962;-71
2021/05/10 14:45:57;;;;;;;;;;;25.20;99.90;;;;;;5040718;28;19913;-70
2021/05/10 14:48:23;;;;;;;;;;;25.10;99.90;;;;;;5031119;28;20008;-70